Bill Berry (bbr) — WDB8998 — position and weather

sailwx.info

Track history (hours):
 
Tides and Currents Weather Stations Pressure Air Temp Water Temp Dewpoint Dewpoint Depression Visibility Wind Speed Wind Dir Waves Ship Positions

Bill Berry (bbr)

Owner: INGRAM BARGE COMPANY, Nashville, TN. More information available from US FCC via Universal Licensing System and Coast Guard Vessel Documentation Center.

Last reported at 2015-Dec-15 18:22 UTC. Time now 2016-Dec-06 08:09 UTC.
Position N 38°45' W 083°51'.
Warning: this ship's position is months out of date.

Length 41 m; draft 3.5 m.

Type: Towing. MMSI: 366967630.

Date/timePositionNaut miles runAvg speedWind from/ knotsBaromVisibWave heightAir tempDewpointWater temp
2015-Dec-15 18:22N 38°45' W 083°51'10 5.3
2015-Dec-15 16:30N 38°46' W 084°04'5 5.5
2015-Dec-15 15:32N 38°48' W 084°10'3 3.1
2015-Dec-15 14:32N 38°49' W 084°14'4 4.6
2015-Dec-15 13:33N 38°54' W 084°14'5 4.6
2015-Dec-15 12:33N 38°58' W 084°18'4 4.4
2015-Dec-15 11:33N 39°02' W 084°20'4 4.1
2015-Dec-15 10:33N 39°03' W 084°25'4 4.2
2015-Dec-15 09:32N 39°07' W 084°27'4 3.8
2015-Dec-15 08:33N 39°05' W 084°31'4 4.0
2015-Dec-15 07:32N 39°04' W 084°36'4 4.4
2015-Dec-15 06:33N 39°06' W 084°41'1 1.4
2015-Dec-15 05:33N 39°07' W 084°43'3 2.5
2015-Dec-15 04:32N 39°09' W 084°45'6 5.0
2015-Dec-15 03:18N 39°05' W 084°52'  
2015-Dec-11 07:09N 38°55' W 084°52'7 3.7
2015-Dec-11 05:20N 39°02' W 084°53'3 3.3
2015-Dec-11 04:32N 39°05' W 084°52'5 4.5
2015-Dec-11 03:32N 39°07' W 084°47'3 3.3
2015-Dec-11 02:33N 39°07' W 084°43'2 1.8
2015-Dec-11 01:32N 39°06' W 084°41'0 0.0
2015-Dec-11 00:32N 39°06' W 084°41'0 0.2
2015-Dec-10 23:33N 39°06' W 084°41'3 3.2
2015-Dec-10 22:33N 39°05' W 084°38'4 3.5
2015-Dec-10 21:33N 39°06' W 084°33'4 4.4
2015-Dec-10 20:33N 39°07' W 084°28'4 4.4
2015-Dec-10 19:33N 39°03' W 084°26'2 2.3
2015-Dec-10 18:33N 39°03' W 084°23'6 5.5
2015-Dec-10 17:32N 38°59' W 084°18'4 3.7
2015-Dec-10 16:33N 38°55' W 084°16'7 7.0
2015-Dec-10 15:33N 38°49' W 084°13'3 2.8
2015-Dec-10 14:19N 38°48' W 084°09'  
2015-Dec-06 20:11N 38°46' W 084°03'3 3.6
2015-Dec-06 19:26N 38°46' W 084°06'4 3.7
2015-Dec-06 18:29N 38°48' W 084°10'1 1.0
2015-Dec-06 17:32N 38°48' W 084°11'1 1.1
2015-Dec-06 16:32N 38°48' W 084°13'0 0.0
2015-Dec-06 15:32N 38°48' W 084°13'0 0.0
2015-Dec-06 14:33N 38°48' W 084°13'0 0.0
2015-Dec-06 13:29N 38°48' W 084°13'0 0.0
2015-Dec-06 12:33N 38°48' W 084°13'0 0.1
2015-Dec-06 11:33N 38°48' W 084°13'0 0.0
2015-Dec-06 10:30N 38°48' W 084°13'0 0.0
2015-Dec-06 09:33N 38°48' W 084°13'0 0.0
2015-Dec-06 08:33N 38°48' W 084°13'0 0.0
2015-Dec-06 07:32N 38°48' W 084°13'0 0.0
2015-Dec-06 06:33N 38°48' W 084°13'0 0.0
2015-Dec-06 05:33N 38°48' W 084°13'0 0.0
2015-Dec-06 04:33N 38°48' W 084°13'0 0.0
2015-Dec-06 03:33N 38°48' W 084°13'0 0.0
2015-Dec-06 02:33N 38°48' W 084°13'0 0.5
2015-Dec-06 01:32N 38°49' W 084°13'4 3.5
2015-Dec-06 00:31N 38°52' W 084°14'4 3.7
2015-Dec-05 23:33N 38°55' W 084°16'4 3.7
2015-Dec-05 22:33N 38°58' W 084°18'4 3.5
2015-Dec-05 21:33N 39°02' W 084°20'4 3.6
2015-Dec-05 20:33N 39°03' W 084°24'3 3.3
2015-Dec-05 19:31N 39°06' W 084°26'2 2.5
2015-Dec-05 18:33N 39°07' W 084°29'  
Track history (hours):
 
Tides and Currents Weather Stations Pressure Air Temp Water Temp Dewpoint Dewpoint Depression Visibility Wind Speed Wind Dir Waves Ship Positions

Bill Berry (bbr)

Owner: INGRAM BARGE COMPANY, Nashville, TN. More information available from US FCC via Universal Licensing System and Coast Guard Vessel Documentation Center.

Last reported at 2015-Dec-15 18:22 UTC. Time now 2016-Dec-06 08:09 UTC.
Position N 38°45' W 083°51'.
Warning: this ship's position is months out of date.

Length 41 m; draft 3.5 m.

Type: Towing. MMSI: 366967630.

Date/timePositionNaut miles runAvg speedWind from/ knotsBaromVisibWave heightAir tempDewpointWater temp
2015-Dec-15 18:22N 38°45' W 083°51'10 5.3
2015-Dec-15 16:30N 38°46' W 084°04'5 5.5
2015-Dec-15 15:32N 38°48' W 084°10'3 3.1
2015-Dec-15 14:32N 38°49' W 084°14'4 4.6
2015-Dec-15 13:33N 38°54' W 084°14'5 4.6
2015-Dec-15 12:33N 38°58' W 084°18'4 4.4
2015-Dec-15 11:33N 39°02' W 084°20'4 4.1
2015-Dec-15 10:33N 39°03' W 084°25'4 4.2
2015-Dec-15 09:32N 39°07' W 084°27'4 3.8
2015-Dec-15 08:33N 39°05' W 084°31'4 4.0
2015-Dec-15 07:32N 39°04' W 084°36'4 4.4
2015-Dec-15 06:33N 39°06' W 084°41'1 1.4
2015-Dec-15 05:33N 39°07' W 084°43'3 2.5
2015-Dec-15 04:32N 39°09' W 084°45'6 5.0
2015-Dec-15 03:18N 39°05' W 084°52'  
2015-Dec-11 07:09N 38°55' W 084°52'7 3.7
2015-Dec-11 05:20N 39°02' W 084°53'3 3.3
2015-Dec-11 04:32N 39°05' W 084°52'5 4.5
2015-Dec-11 03:32N 39°07' W 084°47'3 3.3
2015-Dec-11 02:33N 39°07' W 084°43'2 1.8
2015-Dec-11 01:32N 39°06' W 084°41'0 0.0
2015-Dec-11 00:32N 39°06' W 084°41'0 0.2
2015-Dec-10 23:33N 39°06' W 084°41'3 3.2
2015-Dec-10 22:33N 39°05' W 084°38'4 3.5
2015-Dec-10 21:33N 39°06' W 084°33'4 4.4
2015-Dec-10 20:33N 39°07' W 084°28'4 4.4
2015-Dec-10 19:33N 39°03' W 084°26'2 2.3
2015-Dec-10 18:33N 39°03' W 084°23'6 5.5
2015-Dec-10 17:32N 38°59' W 084°18'4 3.7
2015-Dec-10 16:33N 38°55' W 084°16'7 7.0
2015-Dec-10 15:33N 38°49' W 084°13'3 2.8
2015-Dec-10 14:19N 38°48' W 084°09'  
2015-Dec-06 20:11N 38°46' W 084°03'3 3.6
2015-Dec-06 19:26N 38°46' W 084°06'4 3.7
2015-Dec-06 18:29N 38°48' W 084°10'1 1.0
2015-Dec-06 17:32N 38°48' W 084°11'1 1.1
2015-Dec-06 16:32N 38°48' W 084°13'0 0.0
2015-Dec-06 15:32N 38°48' W 084°13'0 0.0
2015-Dec-06 14:33N 38°48' W 084°13'0 0.0
2015-Dec-06 13:29N 38°48' W 084°13'0 0.0
2015-Dec-06 12:33N 38°48' W 084°13'0 0.1
2015-Dec-06 11:33N 38°48' W 084°13'0 0.0
2015-Dec-06 10:30N 38°48' W 084°13'0 0.0
2015-Dec-06 09:33N 38°48' W 084°13'0 0.0
2015-Dec-06 08:33N 38°48' W 084°13'0 0.0
2015-Dec-06 07:32N 38°48' W 084°13'0 0.0
2015-Dec-06 06:33N 38°48' W 084°13'0 0.0
2015-Dec-06 05:33N 38°48' W 084°13'0 0.0
2015-Dec-06 04:33N 38°48' W 084°13'0 0.0
2015-Dec-06 03:33N 38°48' W 084°13'0 0.0
2015-Dec-06 02:33N 38°48' W 084°13'0 0.5
2015-Dec-06 01:32N 38°49' W 084°13'4 3.5
2015-Dec-06 00:31N 38°52' W 084°14'4 3.7
2015-Dec-05 23:33N 38°55' W 084°16'4 3.7
2015-Dec-05 22:33N 38°58' W 084°18'4 3.5
2015-Dec-05 21:33N 39°02' W 084°20'4 3.6
2015-Dec-05 20:33N 39°03' W 084°24'3 3.3
2015-Dec-05 19:31N 39°06' W 084°26'2 2.5
2015-Dec-05 18:33N 39°07' W 084°29'  

Dump ship's entire track history